BLZ weather

Chileka International Airport
Blantyre, Blantyre District, Malawi

Public forecast

Using degrees Celsius for public forecast. Weather courtesy of forecast.io.

Current aviation weather report (METAR) for Chileka International Airport

Report is more than 2 hours old.

Retrieved 2020/07/13 12:00 UTC (6 hours ago):

FWCL 131200Z 22006KT 9999 FEW030 24/15 Q1019 NOSIG

Aviation forecast (TAF) for Chileka International Airport

Forecast is more than 6 hours old.

Retrieved 2020/07/13 06:00 UTC (12 hours ago):

TAF FWCL 130415Z 1306/1412 11008KT 9999 SCT015 BECMG 1314/1318 10008KT CAVOK BECMG 1404/1408 14008KT 9999 FEW012